sensor_id;sensor_type;location;lat;lon;timestamp;pressure;altitude;pressure_sealevel;temperature;humidity
59055;BME280;44845;51.444;7.460;2024-02-14T00:02:07;99683.31;;;8.15;83.57
59055;BME280;44845;51.444;7.460;2024-02-14T00:04:32;99679.81;;;8.18;83.54
59055;BME280;44845;51.444;7.460;2024-02-14T00:06:58;99671.09;;;7.92;84.10
59055;BME280;44845;51.444;7.460;2024-02-14T00:09:23;99674.59;;;8.07;83.72
59055;BME280;44845;51.444;7.460;2024-02-14T00:11:48;99667.63;;;8.06;83.92
59055;BME280;44845;51.444;7.460;2024-02-14T00:14:14;99670.25;;;8.06;83.89
59055;BME280;44845;51.444;7.460;2024-02-14T00:16:39;99662.41;;;8.15;83.54
59055;BME280;44845;51.444;7.460;2024-02-14T00:19:04;99667.63;;;8.06;83.48
59055;BME280;44845;51.444;7.460;2024-02-14T00:21:30;99671.13;;;7.98;83.79
59055;BME280;44845;51.444;7.460;2024-02-14T00:23:56;99662.41;;;7.93;83.88
59055;BME280;44845;51.444;7.460;2024-02-14T00:26:23;99665.00;;;7.99;83.26
59055;BME280;44845;51.444;7.460;2024-02-14T00:28:49;99655.44;;;7.89;83.50
59055;BME280;44845;51.444;7.460;2024-02-14T00:31:15;99660.66;;;7.83;84.04
59055;BME280;44845;51.444;7.460;2024-02-14T00:33:40;99651.97;;;7.93;83.20
59055;BME280;44845;51.444;7.460;2024-02-14T00:36:06;99652.84;;;7.94;82.99
59055;BME280;44845;51.444;7.460;2024-02-14T00:38:32;99665.00;;;8.09;82.39
59055;BME280;44845;51.444;7.460;2024-02-14T00:40:57;99654.56;;;8.17;81.91
59055;BME280;44845;51.444;7.460;2024-02-14T00:43:23;99661.53;;;8.11;82.14
59055;BME280;44845;51.444;7.460;2024-02-14T00:45:48;99658.91;;;8.11;81.59
59055;BME280;44845;51.444;7.460;2024-02-14T00:48:13;99651.97;;;8.01;82.28
59055;BME280;44845;51.444;7.460;2024-02-14T00:50:39;99655.44;;;8.14;82.03
59055;BME280;44845;51.444;7.460;2024-02-14T00:53:04;99655.44;;;8.17;82.80
59055;BME280;44845;51.444;7.460;2024-02-14T00:55:29;99654.56;;;8.25;83.34
59055;BME280;44845;51.444;7.460;2024-02-14T00:57:54;99640.63;;;8.15;84.06
59055;BME280;44845;51.444;7.460;2024-02-14T01:00:20;99648.50;;;8.00;84.71
59055;BME280;44845;51.444;7.460;2024-02-14T01:02:45;99644.13;;;8.03;84.63
59055;BME280;44845;51.444;7.460;2024-02-14T01:05:10;99638.03;;;7.97;85.36
59055;BME280;44845;51.444;7.460;2024-02-14T01:07:36;99638.91;;;8.01;85.35
59055;BME280;44845;51.444;7.460;2024-02-14T01:10:02;99657.16;;;8.09;85.00
59055;BME280;44845;51.444;7.460;2024-02-14T01:12:27;99655.44;;;8.09;85.17
59055;BME280;44845;51.444;7.460;2024-02-14T01:14:54;99640.63;;;8.11;85.00
59055;BME280;44845;51.444;7.460;2024-02-14T01:17:20;99639.75;;;8.06;85.60
59055;BME280;44845;51.444;7.460;2024-02-14T01:19:45;99639.75;;;8.14;85.53
59055;BME280;44845;51.444;7.460;2024-02-14T01:22:11;99631.06;;;8.15;85.24
59055;BME280;44845;51.444;7.460;2024-02-14T01:24:37;99637.16;;;8.08;85.51
59055;BME280;44845;51.444;7.460;2024-02-14T01:27:02;99638.91;;;8.01;85.31
59055;BME280;44845;51.444;7.460;2024-02-14T01:29:28;99642.38;;;8.06;85.52
59055;BME280;44845;51.444;7.460;2024-02-14T01:31:54;99638.03;;;8.04;85.34
59055;BME280;44845;51.444;7.460;2024-02-14T01:34:20;99636.31;;;8.06;85.41
59055;BME280;44845;51.444;7.460;2024-02-14T01:36:46;99635.41;;;8.13;85.73
59055;BME280;44845;51.444;7.460;2024-02-14T01:39:11;99627.59;;;7.96;86.00
59055;BME280;44845;51.444;7.460;2024-02-14T01:41:37;99618.88;;;8.02;85.58
59055;BME280;44845;51.444;7.460;2024-02-14T01:44:04;99620.59;;;8.12;85.97
59055;BME280;44845;51.444;7.460;2024-02-14T01:46:29;99610.16;;;8.09;85.71
59055;BME280;44845;51.444;7.460;2024-02-14T01:48:55;99618.88;;;8.00;86.08
59055;BME280;44845;51.444;7.460;2024-02-14T01:51:22;99618.00;;;8.04;86.08
59055;BME280;44845;51.444;7.460;2024-02-14T01:53:50;99620.59;;;8.12;86.46
59055;BME280;44845;51.444;7.460;2024-02-14T01:56:16;99598.00;;;7.94;86.66
59055;BME280;44845;51.444;7.460;2024-02-14T01:58:42;99596.22;;;7.99;86.71
59055;BME280;44845;51.444;7.460;2024-02-14T02:01:08;99599.72;;;8.03;86.49
59055;BME280;44845;51.444;7.460;2024-02-14T02:03:35;99606.69;;;8.07;86.79
59055;BME280;44845;51.444;7.460;2024-02-14T02:06:01;99604.94;;;8.15;86.74
59055;BME280;44845;51.444;7.460;2024-02-14T02:08:27;99612.78;;;8.03;86.67
59055;BME280;44845;51.444;7.460;2024-02-14T02:10:52;99598.88;;;8.00;86.81
59055;BME280;44845;51.444;7.460;2024-02-14T02:13:18;99593.63;;;8.00;87.63
59055;BME280;44845;51.444;7.460;2024-02-14T02:15:44;99610.16;;;8.09;87.27
59055;BME280;44845;51.444;7.460;2024-02-14T02:18:10;99592.72;;;8.17;87.37
59055;BME280;44845;51.444;7.460;2024-02-14T02:20:35;99592.72;;;8.14;87.06
59055;BME280;44845;51.444;7.460;2024-02-14T02:23:01;99595.34;;;8.14;87.35
59055;BME280;44845;51.444;7.460;2024-02-14T02:25:27;99597.09;;;8.10;87.58
59055;BME280;44845;51.444;7.460;2024-02-14T02:27:53;99600.59;;;8.11;87.68
59055;BME280;44845;51.444;7.460;2024-02-14T02:30:22;99603.22;;;8.03;88.16
59055;BME280;44845;51.444;7.460;2024-02-14T02:32:47;99608.41;;;8.14;88.33
59055;BME280;44845;51.444;7.460;2024-02-14T02:35:12;99612.75;;;8.23;88.08
59055;BME280;44845;51.444;7.460;2024-02-14T02:37:38;99621.44;;;8.23;87.81
59055;BME280;44845;51.444;7.460;2024-02-14T02:40:03;99617.97;;;8.21;88.00
59055;BME280;44845;51.444;7.460;2024-02-14T02:42:30;99611.00;;;8.25;87.87
59055;BME280;44845;51.444;7.460;2024-02-14T02:44:55;99613.63;;;8.20;88.29
59055;BME280;44845;51.444;7.460;2024-02-14T02:47:20;99606.69;;;8.02;88.71
59055;BME280;44845;51.444;7.460;2024-02-14T02:49:46;99613.63;;;8.20;88.43
59055;BME280;44845;51.444;7.460;2024-02-14T02:52:12;99611.88;;;8.26;88.36
59055;BME280;44845;51.444;7.460;2024-02-14T02:54:37;99617.09;;;8.16;88.50
59055;BME280;44845;51.444;7.460;2024-02-14T02:57:09;99613.63;;;8.19;88.38
59055;BME280;44845;51.444;7.460;2024-02-14T02:59:35;99610.13;;;8.28;87.88
59055;BME280;44845;51.444;7.460;2024-02-14T03:02:01;99613.59;;;8.36;88.25
59055;BME280;44845;51.444;7.460;2024-02-14T03:04:27;99608.34;;;8.36;88.19
59055;BME280;44845;51.444;7.460;2024-02-14T03:06:52;99617.09;;;8.29;88.26
59055;BME280;44845;51.444;7.460;2024-02-14T03:09:18;99613.63;;;8.17;88.86
59055;BME280;44845;51.444;7.460;2024-02-14T03:11:49;99616.22;;;8.19;88.82
59055;BME280;44845;51.444;7.460;2024-02-14T03:14:14;99625.78;;;8.34;88.47
59055;BME280;44845;51.444;7.460;2024-02-14T03:16:40;99612.72;;;8.29;88.59
59055;BME280;44845;51.444;7.460;2024-02-14T03:19:05;99620.56;;;8.36;88.68
59055;BME280;44845;51.444;7.460;2024-02-14T03:21:31;99618.81;;;8.42;88.57
59055;BME280;44845;51.444;7.460;2024-02-14T03:24:01;99616.19;;;8.39;88.34
59055;BME280;44845;51.444;7.460;2024-02-14T03:26:28;99611.84;;;8.44;88.48
59055;BME280;44845;51.444;7.460;2024-02-14T03:28:53;99610.13;;;8.40;88.77
59055;BME280;44845;51.444;7.460;2024-02-14T03:31:19;99607.50;;;8.40;89.40
59055;BME280;44845;51.444;7.460;2024-02-14T03:33:45;99608.34;;;8.42;89.49
59055;BME280;44845;51.444;7.460;2024-02-14T03:36:11;99607.50;;;8.31;89.86
59055;BME280;44845;51.444;7.460;2024-02-14T03:38:36;99611.84;;;8.38;89.68
59055;BME280;44845;51.444;7.460;2024-02-14T03:41:02;99609.22;;;8.33;90.24
59055;BME280;44845;51.444;7.460;2024-02-14T03:43:27;99605.75;;;8.36;90.23
59055;BME280;44845;51.444;7.460;2024-02-14T03:45:53;99617.06;;;8.40;90.63
59055;BME280;44845;51.444;7.460;2024-02-14T03:48:19;99599.66;;;8.34;91.17
59055;BME280;44845;51.444;7.460;2024-02-14T03:50:45;99596.22;;;8.18;91.73
59055;BME280;44845;51.444;7.460;2024-02-14T03:53:10;99605.81;;;8.16;92.21
59055;BME280;44845;51.444;7.460;2024-02-14T03:55:40;99606.66;;;8.16;92.34
59055;BME280;44845;51.444;7.460;2024-02-14T03:58:06;99603.16;;;8.28;91.81
59055;BME280;44845;51.444;7.460;2024-02-14T04:00:34;99604.00;;;8.40;91.44
59055;BME280;44845;51.444;7.460;2024-02-14T04:03:00;99610.13;;;8.28;91.55
59055;BME280;44845;51.444;7.460;2024-02-14T04:05:27;99613.59;;;8.36;91.72
59055;BME280;44845;51.444;7.460;2024-02-14T04:07:54;99613.59;;;8.36;91.91
59055;BME280;44845;51.444;7.460;2024-02-14T04:10:20;99618.84;;;8.22;92.26
59055;BME280;44845;51.444;7.460;2024-02-14T04:12:45;99619.66;;;8.38;92.34
59055;BME280;44845;51.444;7.460;2024-02-14T04:15:11;99614.44;;;8.38;92.08
59055;BME280;44845;51.444;7.460;2024-02-14T04:17:36;99609.25;;;8.43;92.42
59055;BME280;44845;51.444;7.460;2024-02-14T04:20:02;99616.19;;;8.47;92.77
59055;BME280;44845;51.444;7.460;2024-02-14T04:22:27;99622.28;;;8.48;92.94
59055;BME280;44845;51.444;7.460;2024-02-14T04:24:53;99623.16;;;8.50;92.71
59055;BME280;44845;51.444;7.460;2024-02-14T04:27:18;99621.41;;;8.47;93.08
59055;BME280;44845;51.444;7.460;2024-02-14T04:29:47;99629.22;;;8.49;93.18
59055;BME280;44845;51.444;7.460;2024-02-14T04:32:13;99623.16;;;8.42;93.64
59055;BME280;44845;51.444;7.460;2024-02-14T04:34:39;99631.00;;;8.43;93.36
59055;BME280;44845;51.444;7.460;2024-02-14T04:37:05;99624.03;;;8.42;93.57
59055;BME280;44845;51.444;7.460;2024-02-14T04:39:35;99631.00;;;8.47;93.79
59055;BME280;44845;51.444;7.460;2024-02-14T04:42:01;99631.88;;;8.50;93.28
59055;BME280;44845;51.444;7.460;2024-02-14T04:44:28;99630.13;;;8.46;93.47
59055;BME280;44845;51.444;7.460;2024-02-14T04:46:53;99637.09;;;8.44;93.83
59055;BME280;44845;51.444;7.460;2024-02-14T04:49:18;99632.72;;;8.51;93.32
59055;BME280;44845;51.444;7.460;2024-02-14T04:51:45;99623.13;;;8.48;93.50
59055;BME280;44845;51.444;7.460;2024-02-14T04:54:10;99629.25;;;8.42;93.94
59055;BME280;44845;51.444;7.460;2024-02-14T04:56:35;99648.41;;;8.41;94.10
59055;BME280;44845;51.444;7.460;2024-02-14T04:59:01;99637.09;;;8.44;93.97
59055;BME280;44845;51.444;7.460;2024-02-14T05:01:27;99636.19;;;8.58;93.71
59055;BME280;44845;51.444;7.460;2024-02-14T05:03:52;99636.22;;;8.43;94.22
59055;BME280;44845;51.444;7.460;2024-02-14T05:06:17;99641.44;;;8.47;94.81
59055;BME280;44845;51.444;7.460;2024-02-14T05:08:43;99644.03;;;8.56;94.83
59055;BME280;44845;51.444;7.460;2024-02-14T05:11:08;99643.16;;;8.57;95.11
59055;BME280;44845;51.444;7.460;2024-02-14T05:13:34;99643.19;;;8.62;94.94
59055;BME280;44845;51.444;7.460;2024-02-14T05:16:03;99642.31;;;8.49;95.54
59055;BME280;44845;51.444;7.460;2024-02-14T05:18:28;99635.31;;;8.54;95.60
59055;BME280;44845;51.444;7.460;2024-02-14T05:20:53;99637.06;;;8.55;95.82
59055;BME280;44845;51.444;7.460;2024-02-14T05:23:19;99640.56;;;8.59;95.71
59055;BME280;44845;51.444;7.460;2024-02-14T05:25:44;99644.94;;;8.60;95.58
59055;BME280;44845;51.444;7.460;2024-02-14T05:28:10;99648.38;;;8.57;96.07
59055;BME280;44845;51.444;7.460;2024-02-14T05:30:43;99652.75;;;8.61;96.01
59055;BME280;44845;51.444;7.460;2024-02-14T05:33:08;99655.38;;;8.60;95.86
59055;BME280;44845;51.444;7.460;2024-02-14T05:35:33;99655.38;;;8.58;96.23
59055;BME280;44845;51.444;7.460;2024-02-14T05:37:59;99657.13;;;8.59;96.22
59055;BME280;44845;51.444;7.460;2024-02-14T05:40:24;99653.63;;;8.59;96.27
59055;BME280;44845;51.444;7.460;2024-02-14T05:42:50;99657.09;;;8.56;96.21
59055;BME280;44845;51.444;7.460;2024-02-14T05:45:15;99663.22;;;8.60;96.20
59055;BME280;44845;51.444;7.460;2024-02-14T05:47:40;99662.34;;;8.62;96.07
59055;BME280;44845;51.444;7.460;2024-02-14T05:50:06;99657.97;;;8.63;95.95
59055;BME280;44845;51.444;7.460;2024-02-14T05:52:34;99663.19;;;8.63;96.60
59055;BME280;44845;51.444;7.460;2024-02-14T05:54:59;99672.78;;;8.69;96.23
59055;BME280;44845;51.444;7.460;2024-02-14T05:57:24;99663.22;;;8.64;96.44
59055;BME280;44845;51.444;7.460;2024-02-14T05:59:50;99674.56;;;8.60;96.81
59055;BME280;44845;51.444;7.460;2024-02-14T06:02:15;99674.53;;;8.70;96.85
59055;BME280;44845;51.444;7.460;2024-02-14T06:04:40;99672.78;;;8.72;96.84
59055;BME280;44845;51.444;7.460;2024-02-14T06:07:08;99673.66;;;8.69;97.41
59055;BME280;44845;51.444;7.460;2024-02-14T06:09:35;99676.28;;;8.67;97.36
59055;BME280;44845;51.444;7.460;2024-02-14T06:12:00;99680.63;;;8.58;97.44
59055;BME280;44845;51.444;7.460;2024-02-14T06:14:25;99672.78;;;8.69;97.33
59055;BME280;44845;51.444;7.460;2024-02-14T06:16:51;99676.25;;;8.71;97.51
59055;BME280;44845;51.444;7.460;2024-02-14T06:19:17;99683.25;;;8.72;97.59
59055;BME280;44845;51.444;7.460;2024-02-14T06:21:42;99685.88;;;8.62;98.31
59055;BME280;44845;51.444;7.460;2024-02-14T06:24:07;99678.00;;;8.70;97.93
59055;BME280;44845;51.444;7.460;2024-02-14T06:26:34;99677.13;;;8.74;97.74
59055;BME280;44845;51.444;7.460;2024-02-14T06:29:00;99684.97;;;8.73;97.87
59055;BME280;44845;51.444;7.460;2024-02-14T06:31:25;99683.22;;;8.73;98.03
59055;BME280;44845;51.444;7.460;2024-02-14T06:33:50;99688.47;;;8.75;97.63
59055;BME280;44845;51.444;7.460;2024-02-14T06:36:16;99685.81;;;8.78;97.90
59055;BME280;44845;51.444;7.460;2024-02-14T06:38:41;99693.66;;;8.81;97.72
59055;BME280;44845;51.444;7.460;2024-02-14T06:41:07;99698.00;;;8.81;98.26
59055;BME280;44845;51.444;7.460;2024-02-14T06:43:32;99711.09;;;8.79;98.17
59055;BME280;44845;51.444;7.460;2024-02-14T06:45:57;99714.59;;;8.84;97.98
59055;BME280;44845;51.444;7.460;2024-02-14T06:48:23;99705.84;;;8.85;97.79
59055;BME280;44845;51.444;7.460;2024-02-14T06:50:52;99719.81;;;8.81;98.21
59055;BME280;44845;51.444;7.460;2024-02-14T06:53:18;99719.84;;;8.72;98.92
59055;BME280;44845;51.444;7.460;2024-02-14T06:55:43;99723.31;;;8.77;99.16
59055;BME280;44845;51.444;7.460;2024-02-14T06:58:08;99717.19;;;8.83;99.01
59055;BME280;44845;51.444;7.460;2024-02-14T07:00:34;99727.66;;;8.81;99.28
59055;BME280;44845;51.444;7.460;2024-02-14T07:02:59;99735.47;;;8.87;98.92
59055;BME280;44845;51.444;7.460;2024-02-14T07:05:24;99728.56;;;8.74;99.98
59055;BME280;44845;51.444;7.460;2024-02-14T07:07:51;99737.25;;;8.79;99.88
59055;BME280;44845;51.444;7.460;2024-02-14T07:10:16;99736.38;;;8.83;99.80
59055;BME280;44845;51.444;7.460;2024-02-14T07:12:42;99735.50;;;8.81;99.96
59055;BME280;44845;51.444;7.460;2024-02-14T07:15:07;99731.13;;;8.86;99.35
59055;BME280;44845;51.444;7.460;2024-02-14T07:17:33;99732.84;;;8.97;99.07
59055;BME280;44845;51.444;7.460;2024-02-14T07:19:59;99736.34;;;8.94;99.19
59055;BME280;44845;51.444;7.460;2024-02-14T07:22:24;99745.94;;;8.87;99.10
59055;BME280;44845;51.444;7.460;2024-02-14T07:24:49;99741.56;;;8.93;99.36
59055;BME280;44845;51.444;7.460;2024-02-14T07:27:15;99746.00;;;8.72;100.00
59055;BME280;44845;51.444;7.460;2024-02-14T07:29:41;99747.69;;;8.85;100.00
59055;BME280;44845;51.444;7.460;2024-02-14T07:32:07;99748.47;;;9.12;100.00
59055;BME280;44845;51.444;7.460;2024-02-14T07:34:32;99740.47;;;9.50;100.00
59055;BME280;44845;51.444;7.460;2024-02-14T07:36:58;99745.75;;;9.41;98.02
59055;BME280;44845;51.444;7.460;2024-02-14T07:39:23;99738.66;;;9.62;97.39
59055;BME280;44845;51.444;7.460;2024-02-14T07:41:49;99749.97;;;9.68;95.57
59055;BME280;44845;51.444;7.460;2024-02-14T07:44:14;99757.84;;;9.64;95.08
59055;BME280;44845;51.444;7.460;2024-02-14T07:46:39;99754.44;;;9.51;95.77
59055;BME280;44845;51.444;7.460;2024-02-14T07:49:05;99751.88;;;9.41;96.61
59055;BME280;44845;51.444;7.460;2024-02-14T07:51:31;99751.00;;;9.41;96.66
59055;BME280;44845;51.444;7.460;2024-02-14T07:54:05;99744.94;;;9.31;97.46
59055;BME280;44845;51.444;7.460;2024-02-14T07:56:30;99751.06;;;9.22;98.18
59055;BME280;44845;51.444;7.460;2024-02-14T07:58:57;99747.63;;;9.17;98.82
59055;BME280;44845;51.444;7.460;2024-02-14T08:01:22;99759.81;;;9.21;98.89
59055;BME280;44845;51.444;7.460;2024-02-14T08:03:47;99757.19;;;9.18;99.53
59055;BME280;44845;51.444;7.460;2024-02-14T08:06:13;99758.94;;;9.20;99.56
59055;BME280;44845;51.444;7.460;2024-02-14T08:08:38;99758.94;;;9.09;100.00
59055;BME280;44845;51.444;7.460;2024-02-14T08:11:04;99754.56;;;9.15;100.00
59055;BME280;44845;51.444;7.460;2024-02-14T08:13:30;99755.44;;;9.23;99.93
59055;BME280;44845;51.444;7.460;2024-02-14T08:15:55;99768.50;;;9.20;99.88
59055;BME280;44845;51.444;7.460;2024-02-14T08:18:21;99759.81;;;9.16;100.00
59055;BME280;44845;51.444;7.460;2024-02-14T08:20:46;99761.53;;;9.22;100.00
59055;BME280;44845;51.444;7.460;2024-02-14T08:23:11;99763.28;;;9.20;100.00
59055;BME280;44845;51.444;7.460;2024-02-14T08:25:37;99770.28;;;9.21;100.00
59055;BME280;44845;51.444;7.460;2024-02-14T08:28:02;99770.28;;;9.24;100.00
59055;BME280;44845;51.444;7.460;2024-02-14T08:30:28;99771.97;;;9.27;100.00
59055;BME280;44845;51.444;7.460;2024-02-14T08:32:53;99775.47;;;9.27;100.00
59055;BME280;44845;51.444;7.460;2024-02-14T08:35:18;99773.72;;;9.28;100.00
59055;BME280;44845;51.444;7.460;2024-02-14T08:37:44;99777.22;;;9.31;100.00
59055;BME280;44845;51.444;7.460;2024-02-14T08:40:10;99777.22;;;9.28;100.00
59055;BME280;44845;51.444;7.460;2024-02-14T08:42:37;99775.47;;;9.33;100.00
59055;BME280;44845;51.444;7.460;2024-02-14T08:45:04;99778.94;;;9.32;100.00
59055;BME280;44845;51.444;7.460;2024-02-14T08:47:29;99777.22;;;9.31;100.00
59055;BME280;44845;51.444;7.460;2024-02-14T08:49:54;99778.94;;;9.39;100.00
59055;BME280;44845;51.444;7.460;2024-02-14T08:52:20;99780.66;;;9.40;100.00
59055;BME280;44845;51.444;7.460;2024-02-14T08:54:46;99782.41;;;9.41;100.00
59055;BME280;44845;51.444;7.460;2024-02-14T08:57:11;99791.13;;;9.46;100.00
59055;BME280;44845;51.444;7.460;2024-02-14T08:59:37;99789.38;;;9.48;100.00
59055;BME280;44845;51.444;7.460;2024-02-14T09:02:02;99786.72;;;9.46;100.00
59055;BME280;44845;51.444;7.460;2024-02-14T09:04:27;99789.38;;;9.48;100.00
59055;BME280;44845;51.444;7.460;2024-02-14T09:06:53;99794.59;;;9.45;100.00
59055;BME280;44845;51.444;7.460;2024-02-14T09:09:18;99804.16;;;9.49;100.00
59055;BME280;44845;51.444;7.460;2024-02-14T09:11:45;99795.53;;;9.33;100.00
59055;BME280;44845;51.444;7.460;2024-02-14T09:14:11;99793.75;;;9.46;100.00
59055;BME280;44845;51.444;7.460;2024-02-14T09:16:37;99805.06;;;9.50;100.00
59055;BME280;44845;51.444;7.460;2024-02-14T09:19:02;99792.81;;;9.55;100.00
59055;BME280;44845;51.444;7.460;2024-02-14T09:21:30;99794.53;;;9.61;100.00
59055;BME280;44845;51.444;7.460;2024-02-14T09:23:56;99789.31;;;9.54;100.00
59055;BME280;44845;51.444;7.460;2024-02-14T09:26:21;99787.56;;;9.56;100.00
59055;BME280;44845;51.444;7.460;2024-02-14T09:28:46;99793.66;;;9.60;100.00
59055;BME280;44845;51.444;7.460;2024-02-14T09:31:17;99801.53;;;9.60;100.00
59055;BME280;44845;51.444;7.460;2024-02-14T09:33:42;99798.88;;;9.65;100.00
59055;BME280;44845;51.444;7.460;2024-02-14T09:36:08;99802.34;;;9.64;100.00
59055;BME280;44845;51.444;7.460;2024-02-14T09:38:36;99809.38;;;9.63;100.00
59055;BME280;44845;51.444;7.460;2024-02-14T09:43:58;99804.97;;;9.67;100.00
59055;BME280;44845;51.444;7.460;2024-02-14T09:46:24;99806.69;;;9.71;100.00
59055;BME280;44845;51.444;7.460;2024-02-14T09:48:53;99802.28;;;9.79;100.00
59055;BME280;44845;51.444;7.460;2024-02-14T09:51:19;99808.44;;;9.75;100.00
59055;BME280;44845;51.444;7.460;2024-02-14T09:53:46;99803.16;;;9.78;100.00
59055;BME280;44845;51.444;7.460;2024-02-14T09:56:12;99808.44;;;9.75;100.00
59055;BME280;44845;51.444;7.460;2024-02-14T09:58:40;99801.44;;;9.77;100.00
59055;BME280;44845;51.444;7.460;2024-02-14T10:01:05;99806.66;;;9.76;100.00
59055;BME280;44845;51.444;7.460;2024-02-14T10:03:32;99803.22;;;9.72;100.00
59055;BME280;44845;51.444;7.460;2024-02-14T10:05:57;99815.38;;;9.79;100.00
59055;BME280;44845;51.444;7.460;2024-02-14T10:08:23;99814.53;;;9.77;100.00
59055;BME280;44845;51.444;7.460;2024-02-14T10:10:49;99815.44;;;9.73;100.00
59055;BME280;44845;51.444;7.460;2024-02-14T10:13:15;99814.53;;;9.80;100.00
59055;BME280;44845;51.444;7.460;2024-02-14T10:15:41;99811.88;;;9.84;100.00
59055;BME280;44845;51.444;7.460;2024-02-14T10:18:06;99830.22;;;9.76;100.00
59055;BME280;44845;51.444;7.460;2024-02-14T10:20:34;99828.44;;;9.86;100.00
59055;BME280;44845;51.444;7.460;2024-02-14T10:23:05;99833.69;;;9.87;100.00
59055;BME280;44845;51.444;7.460;2024-02-14T10:25:31;99828.41;;;9.90;100.00
59055;BME280;44845;51.444;7.460;2024-02-14T10:28:06;99830.16;;;9.98;100.00
59055;BME280;44845;51.444;7.460;2024-02-14T10:30:34;99825.75;;;9.98;100.00
59055;BME280;44845;51.444;7.460;2024-02-14T10:32:59;99817.03;;;9.96;100.00
59055;BME280;44845;51.444;7.460;2024-02-14T10:35:25;99829.22;;;10.03;100.00
59055;BME280;44845;51.444;7.460;2024-02-14T10:37:50;99824.88;;;10.02;100.00
59055;BME280;44845;51.444;7.460;2024-02-14T10:40:19;99820.50;;;10.01;100.00
59055;BME280;44845;51.444;7.460;2024-02-14T10:42:45;99838.88;;;10.00;100.00
59055;BME280;44845;51.444;7.460;2024-02-14T10:45:11;99840.56;;;10.04;100.00
59055;BME280;44845;51.444;7.460;2024-02-14T10:47:40;99836.22;;;10.05;100.00
59055;BME280;44845;51.444;7.460;2024-02-14T10:50:07;99836.22;;;9.98;100.00
59055;BME280;44845;51.444;7.460;2024-02-14T10:52:35;99834.41;;;10.13;100.00
59055;BME280;44845;51.444;7.460;2024-02-14T10:55:04;99837.84;;;10.21;100.00
59055;BME280;44845;51.444;7.460;2024-02-14T10:57:30;99829.97;;;10.26;100.00
59055;BME280;44845;51.444;7.460;2024-02-14T10:59:58;99828.34;;;10.03;100.00
59055;BME280;44845;51.444;7.460;2024-02-14T11:02:25;99822.16;;;10.15;100.00
59055;BME280;44845;51.444;7.460;2024-02-14T11:04:55;99829.13;;;10.22;100.00
59055;BME280;44845;51.444;7.460;2024-02-14T11:07:20;99827.38;;;10.21;100.00
59055;BME280;44845;51.444;7.460;2024-02-14T11:09:48;99828.25;;;10.20;100.00
59055;BME280;44845;51.444;7.460;2024-02-14T11:12:13;99826.50;;;10.21;100.00
59055;BME280;44845;51.444;7.460;2024-02-14T11:14:42;99821.25;;;10.18;100.00
59055;BME280;44845;51.444;7.460;2024-02-14T11:17:12;99821.28;;;10.16;100.00
59055;BME280;44845;51.444;7.460;2024-02-14T11:19:38;99820.38;;;10.23;100.00
59055;BME280;44845;51.444;7.460;2024-02-14T11:22:17;99817.72;;;10.30;100.00
59055;BME280;44845;51.444;7.460;2024-02-14T11:24:45;99823.81;;;10.29;100.00
59055;BME280;44845;51.444;7.460;2024-02-14T11:27:11;99808.09;;;10.32;100.00
59055;BME280;44845;51.444;7.460;2024-02-14T11:29:38;99826.44;;;10.32;100.00
59055;BME280;44845;51.444;7.460;2024-02-14T11:32:05;99821.97;;;10.40;100.00
59055;BME280;44845;51.444;7.460;2024-02-14T11:34:33;99818.50;;;10.38;100.00
59055;BME280;44845;51.444;7.460;2024-02-14T11:36:58;99821.06;;;10.46;100.00
59055;BME280;44845;51.444;7.460;2024-02-14T11:39:25;99824.56;;;10.48;100.00
59055;BME280;44845;51.444;7.460;2024-02-14T11:41:50;99826.31;;;10.51;100.00
59055;BME280;44845;51.444;7.460;2024-02-14T11:44:16;99821.91;;;10.56;100.00
59055;BME280;44845;51.444;7.460;2024-02-14T11:46:41;99821.91;;;10.56;100.00
59055;BME280;44845;51.444;7.460;2024-02-14T11:49:07;99824.53;;;10.53;100.00
59055;BME280;44845;51.444;7.460;2024-02-14T11:51:34;99825.50;;;10.39;100.00
59055;BME280;44845;51.444;7.460;2024-02-14T11:54:04;99831.56;;;10.51;100.00
59055;BME280;44845;51.444;7.460;2024-02-14T11:56:34;99823.69;;;10.47;100.00
59055;BME280;44845;51.444;7.460;2024-02-14T11:59:01;99832.47;;;10.43;100.00
59055;BME280;44845;51.444;7.460;2024-02-14T12:01:31;99829.78;;;10.53;100.00
59055;BME280;44845;51.444;7.460;2024-02-14T12:04:04;99834.19;;;10.51;100.00
59055;BME280;44845;51.444;7.460;2024-02-14T12:06:31;99827.19;;;10.46;100.00
59055;BME280;44845;51.444;7.460;2024-02-14T12:09:00;99830.69;;;10.52;100.00
59055;BME280;44845;51.444;7.460;2024-02-14T12:11:30;99830.69;;;10.52;100.00
59055;BME280;44845;51.444;7.460;2024-02-14T12:14:00;99829.78;;;10.53;100.00
59055;BME280;44845;51.444;7.460;2024-02-14T12:16:26;99823.63;;;10.57;100.00
59055;BME280;44845;51.444;7.460;2024-02-14T12:19:04;99813.97;;;10.64;100.00
59055;BME280;44845;51.444;7.460;2024-02-14T12:21:34;99803.44;;;10.67;100.00
59055;BME280;44845;51.444;7.460;2024-02-14T12:24:00;99804.31;;;10.70;100.00
59055;BME280;44845;51.444;7.460;2024-02-14T12:26:27;99804.34;;;10.64;100.00
59055;BME280;44845;51.444;7.460;2024-02-14T12:28:53;99811.31;;;10.68;100.00
59055;BME280;44845;51.444;7.460;2024-02-14T12:31:23;99821.75;;;10.76;100.00
59055;BME280;44845;51.444;7.460;2024-02-14T12:33:48;99816.50;;;10.75;100.00
59055;BME280;44845;51.444;7.460;2024-02-14T12:36:14;99812.19;;;10.69;100.00
59055;BME280;44845;51.444;7.460;2024-02-14T12:38:40;99815.69;;;10.68;100.00
59055;BME280;44845;51.444;7.460;2024-02-14T12:41:05;99807.78;;;10.69;100.00
59055;BME280;44845;51.444;7.460;2024-02-14T12:43:31;99813.00;;;10.76;100.00
59055;BME280;44845;51.444;7.460;2024-02-14T12:45:56;99826.97;;;10.78;100.00
59055;BME280;44845;51.444;7.460;2024-02-14T12:48:23;99817.34;;;10.77;100.00
59055;BME280;44845;51.444;7.460;2024-02-14T12:50:53;99808.66;;;10.73;100.00
59055;BME280;44845;51.444;7.460;2024-02-14T12:53:18;99815.56;;;10.80;100.00
59055;BME280;44845;51.444;7.460;2024-02-14T12:55:45;99812.94;;;10.80;100.00
59055;BME280;44845;51.444;7.460;2024-02-14T12:58:10;99812.94;;;10.82;100.00
59055;BME280;44845;51.444;7.460;2024-02-14T13:00:36;99812.91;;;10.85;100.00
59055;BME280;44845;51.444;7.460;2024-02-14T13:03:01;99811.09;;;10.92;100.00